sensor_id;sensor_type;location;lat;lon;timestamp;pressure;altitude;pressure_sealevel;temperature;humidity
41246;BME280;53880;47.526;18.986;2023-04-25T00:00:27;98672.22;;;21.55;48.38
41246;BME280;53880;47.526;18.986;2023-04-25T00:03:04;98670.38;;;21.55;48.34
41246;BME280;53880;47.526;18.986;2023-04-25T00:05:29;98661.31;;;21.56;48.52
41246;BME280;53880;47.526;18.986;2023-04-25T00:07:51;98664.81;;;21.57;48.56
41246;BME280;53880;47.526;18.986;2023-04-25T00:10:12;98664.00;;;21.56;48.39
41246;BME280;53880;47.526;18.986;2023-04-25T00:12:26;98656.97;;;21.55;48.53
41246;BME280;53880;47.526;18.986;2023-04-25T00:14:47;98670.81;;;21.59;48.38
41246;BME280;53880;47.526;18.986;2023-04-25T00:17:08;98659.03;;;21.53;48.36
41246;BME280;53880;47.526;18.986;2023-04-25T00:19:24;98659.63;;;21.49;48.64
41246;BME280;53880;47.526;18.986;2023-04-25T00:21:41;98659.00;;;21.47;48.46
41246;BME280;53880;47.526;18.986;2023-04-25T00:24:04;98654.22;;;21.42;48.51
41246;BME280;53880;47.526;18.986;2023-04-25T00:26:19;98666.97;;;21.40;48.56
41246;BME280;53880;47.526;18.986;2023-04-25T00:28:38;98651.94;;;21.39;48.70
41246;BME280;53880;47.526;18.986;2023-04-25T00:30:55;98651.75;;;21.41;49.05
41246;BME280;53880;47.526;18.986;2023-04-25T00:33:13;98657.72;;;21.43;48.71
41246;BME280;53880;47.526;18.986;2023-04-25T00:35:28;98656.06;;;21.42;48.60
41246;BME280;53880;47.526;18.986;2023-04-25T00:37:48;98645.34;;;21.42;48.80
41246;BME280;53880;47.526;18.986;2023-04-25T00:40:05;98641.03;;;21.41;48.56
41246;BME280;53880;47.526;18.986;2023-04-25T00:42:21;98642.25;;;21.38;48.72
41246;BME280;53880;47.526;18.986;2023-04-25T00:44:39;98633.38;;;21.38;48.54
41246;BME280;53880;47.526;18.986;2023-04-25T00:46:57;98642.44;;;21.37;48.52
41246;BME280;53880;47.526;18.986;2023-04-25T00:49:12;98649.84;;;21.35;48.52
41246;BME280;53880;47.526;18.986;2023-04-25T00:51:36;98628.59;;;21.33;48.41
41246;BME280;53880;47.526;18.986;2023-04-25T00:53:53;98629.66;;;21.32;48.30
41246;BME280;53880;47.526;18.986;2023-04-25T00:56:18;98630.84;;;21.30;48.48
41246;BME280;53880;47.526;18.986;2023-04-25T00:58:36;98627.34;;;21.29;48.65
41246;BME280;53880;47.526;18.986;2023-04-25T01:00:56;98625.69;;;21.28;48.54
41246;BME280;53880;47.526;18.986;2023-04-25T01:03:16;98621.56;;;21.25;48.78
41246;BME280;53880;47.526;18.986;2023-04-25T01:05:34;98614.53;;;21.24;48.60
41246;BME280;53880;47.526;18.986;2023-04-25T01:07:50;98615.38;;;21.25;48.81
41246;BME280;53880;47.526;18.986;2023-04-25T01:10:11;98613.06;;;21.22;48.68
41246;BME280;53880;47.526;18.986;2023-04-25T01:12:31;98603.41;;;21.21;48.92
41246;BME280;53880;47.526;18.986;2023-04-25T01:14:46;98606.06;;;21.21;48.79
41246;BME280;53880;47.526;18.986;2023-04-25T01:17:01;98609.75;;;21.20;48.69
41246;BME280;53880;47.526;18.986;2023-04-25T01:19:19;98608.97;;;21.19;48.99
41246;BME280;53880;47.526;18.986;2023-04-25T01:21:35;98601.94;;;21.18;49.04
41246;BME280;53880;47.526;18.986;2023-04-25T01:23:50;98601.09;;;21.18;48.85
41246;BME280;53880;47.526;18.986;2023-04-25T01:26:11;98607.69;;;21.15;48.99
41246;BME280;53880;47.526;18.986;2023-04-25T01:28:29;98605.03;;;21.15;48.88
41246;BME280;53880;47.526;18.986;2023-04-25T01:30:51;98603.34;;;21.14;49.00
41246;BME280;53880;47.526;18.986;2023-04-25T01:33:13;98604.38;;;21.13;48.97
41246;BME280;53880;47.526;18.986;2023-04-25T01:35:33;98592.84;;;21.13;49.21
41246;BME280;53880;47.526;18.986;2023-04-25T01:37:49;98593.84;;;21.12;49.21
41246;BME280;53880;47.526;18.986;2023-04-25T01:40:11;98595.69;;;21.11;49.02
41246;BME280;53880;47.526;18.986;2023-04-25T01:42:32;98595.69;;;21.11;48.91
41246;BME280;53880;47.526;18.986;2023-04-25T01:44:51;98595.91;;;21.10;49.28
41246;BME280;53880;47.526;18.986;2023-04-25T01:47:09;98597.75;;;21.09;49.35
41246;BME280;53880;47.526;18.986;2023-04-25T01:49:29;98594.44;;;21.07;49.31
41246;BME280;53880;47.526;18.986;2023-04-25T01:51:50;98595.06;;;21.09;49.17
41246;BME280;53880;47.526;18.986;2023-04-25T01:54:13;98598.16;;;21.06;49.29
41246;BME280;53880;47.526;18.986;2023-04-25T01:56:32;98601.84;;;21.05;49.31
41246;BME280;53880;47.526;18.986;2023-04-25T01:58:49;98607.19;;;21.05;49.29
41246;BME280;53880;47.526;18.986;2023-04-25T02:01:28;98612.75;;;21.04;49.20
41246;BME280;53880;47.526;18.986;2023-04-25T02:04:02;98607.41;;;21.04;49.05
41246;BME280;53880;47.526;18.986;2023-04-25T02:06:23;98609.41;;;21.02;49.05
41246;BME280;53880;47.526;18.986;2023-04-25T02:08:41;98612.09;;;21.02;49.38
41246;BME280;53880;47.526;18.986;2023-04-25T02:11:03;98610.44;;;21.01;49.50
41246;BME280;53880;47.526;18.986;2023-04-25T02:13:30;98619.28;;;21.01;49.06
41246;BME280;53880;47.526;18.986;2023-04-25T02:15:51;98606.94;;;21.00;49.42
41246;BME280;53880;47.526;18.986;2023-04-25T02:18:13;98611.47;;;21.00;49.35
41246;BME280;53880;47.526;18.986;2023-04-25T02:20:34;98618.66;;;20.99;49.38
41246;BME280;53880;47.526;18.986;2023-04-25T02:22:53;98616.00;;;20.99;49.30
41246;BME280;53880;47.526;18.986;2023-04-25T02:25:11;98618.88;;;20.98;49.10
41246;BME280;53880;47.526;18.986;2023-04-25T02:27:26;98622.34;;;20.98;49.29
41246;BME280;53880;47.526;18.986;2023-04-25T02:29:50;98605.47;;;20.98;49.28
41246;BME280;53880;47.526;18.986;2023-04-25T02:32:09;98617.66;;;21.00;49.23
41246;BME280;53880;47.526;18.986;2023-04-25T02:34:25;98607.31;;;20.97;49.18
41246;BME280;53880;47.526;18.986;2023-04-25T02:36:43;98606.50;;;20.97;49.66
41246;BME280;53880;47.526;18.986;2023-04-25T02:39:01;98606.50;;;20.97;49.37
41246;BME280;53880;47.526;18.986;2023-04-25T02:41:18;98612.88;;;20.96;49.65
41246;BME280;53880;47.526;18.986;2023-04-25T02:43:36;98603.81;;;20.97;49.43
41246;BME280;53880;47.526;18.986;2023-04-25T02:45:56;98620.72;;;20.97;49.23
41246;BME280;53880;47.526;18.986;2023-04-25T02:48:14;98608.34;;;20.96;49.42
41246;BME280;53880;47.526;18.986;2023-04-25T02:50:29;98620.09;;;20.95;49.16
41246;BME280;53880;47.526;18.986;2023-04-25T02:52:44;98614.53;;;20.97;49.52
41246;BME280;53880;47.526;18.986;2023-04-25T02:55:06;98609.56;;;20.94;49.71
41246;BME280;53880;47.526;18.986;2023-04-25T02:57:24;98610.59;;;20.93;49.79
41246;BME280;53880;47.526;18.986;2023-04-25T02:59:39;98601.53;;;20.94;49.78
41246;BME280;53880;47.526;18.986;2023-04-25T03:01:57;98607.91;;;20.93;49.51
41246;BME280;53880;47.526;18.986;2023-04-25T03:04:17;98609.75;;;20.92;49.24
41246;BME280;53880;47.526;18.986;2023-04-25T03:06:40;98609.94;;;20.91;49.67
41246;BME280;53880;47.526;18.986;2023-04-25T03:09:00;98603.75;;;20.90;49.41
41246;BME280;53880;47.526;18.986;2023-04-25T03:11:25;98608.28;;;20.90;49.20
41246;BME280;53880;47.526;18.986;2023-04-25T03:13:41;98600.44;;;20.88;49.17
41246;BME280;53880;47.526;18.986;2023-04-25T03:16:00;98597.78;;;20.88;49.37
41246;BME280;53880;47.526;18.986;2023-04-25T03:18:15;98594.47;;;20.86;49.60
41246;BME280;53880;47.526;18.986;2023-04-25T03:20:33;98602.50;;;20.86;49.29
41246;BME280;53880;47.526;18.986;2023-04-25T03:22:51;98603.53;;;20.85;49.54
41246;BME280;53880;47.526;18.986;2023-04-25T03:25:09;98596.31;;;20.86;49.20
41246;BME280;53880;47.526;18.986;2023-04-25T03:27:24;98590.16;;;20.85;49.22
41246;BME280;53880;47.526;18.986;2023-04-25T03:29:42;98602.69;;;20.85;49.14
41246;BME280;53880;47.526;18.986;2023-04-25T03:31:57;98599.00;;;20.86;49.22
41246;BME280;53880;47.526;18.986;2023-04-25T03:34:15;98601.66;;;20.86;49.44
41246;BME280;53880;47.526;18.986;2023-04-25T03:36:31;98600.88;;;20.85;49.16
41246;BME280;53880;47.526;18.986;2023-04-25T03:38:50;98606.22;;;20.85;49.56
41246;BME280;53880;47.526;18.986;2023-04-25T03:41:11;98600.03;;;20.85;49.50
41246;BME280;53880;47.526;18.986;2023-04-25T03:43:33;98604.53;;;20.84;49.41
41246;BME280;53880;47.526;18.986;2023-04-25T03:45:56;98611.56;;;20.85;49.16
41246;BME280;53880;47.526;18.986;2023-04-25T03:48:14;98597.53;;;20.83;49.39
41246;BME280;53880;47.526;18.986;2023-04-25T03:50:34;98605.56;;;20.83;49.12
41246;BME280;53880;47.526;18.986;2023-04-25T03:52:55;98604.53;;;20.84;49.21
41246;BME280;53880;47.526;18.986;2023-04-25T03:55:15;98609.06;;;20.84;49.37
41246;BME280;53880;47.526;18.986;2023-04-25T03:57:32;98604.75;;;20.83;49.22
41246;BME280;53880;47.526;18.986;2023-04-25T03:59:50;98603.91;;;20.82;49.23
41246;BME280;53880;47.526;18.986;2023-04-25T04:02:06;98606.78;;;20.81;49.58
41246;BME280;53880;47.526;18.986;2023-04-25T04:04:27;98613.78;;;20.82;49.18
41246;BME280;53880;47.526;18.986;2023-04-25T04:06:50;98622.66;;;20.82;49.57
41246;BME280;53880;47.526;18.986;2023-04-25T04:09:13;98618.94;;;20.83;49.62
41246;BME280;53880;47.526;18.986;2023-04-25T04:11:33;98617.09;;;20.84;50.11
41246;BME280;53880;47.526;18.986;2023-04-25T04:13:53;98617.28;;;20.82;50.24
41246;BME280;53880;47.526;18.986;2023-04-25T04:16:08;98625.31;;;20.82;49.95
41246;BME280;53880;47.526;18.986;2023-04-25T04:18:24;98625.31;;;20.82;49.44
41246;BME280;53880;47.526;18.986;2023-04-25T04:20:44;98626.34;;;20.81;49.56
41246;BME280;53880;47.526;18.986;2023-04-25T04:23:05;98625.53;;;20.81;49.33
41246;BME280;53880;47.526;18.986;2023-04-25T04:25:25;98625.53;;;20.81;49.92
41246;BME280;53880;47.526;18.986;2023-04-25T04:27:56;98630.06;;;20.80;49.68
41246;BME280;53880;47.526;18.986;2023-04-25T04:30:27;98633.56;;;20.81;50.11
41246;BME280;53880;47.526;18.986;2023-04-25T04:32:55;98632.72;;;20.80;50.05
41246;BME280;53880;47.526;18.986;2023-04-25T04:35:14;98637.25;;;20.80;49.68
41246;BME280;53880;47.526;18.986;2023-04-25T04:37:29;98638.09;;;20.80;49.87
41246;BME280;53880;47.526;18.986;2023-04-25T04:39:50;98636.41;;;20.79;49.53
41246;BME280;53880;47.526;18.986;2023-04-25T04:42:27;98634.56;;;20.80;49.40
41246;BME280;53880;47.526;18.986;2023-04-25T04:45:03;98634.56;;;20.80;49.11
41246;BME280;53880;47.526;18.986;2023-04-25T04:47:42;98643.22;;;20.82;50.05
41246;BME280;53880;47.526;18.986;2023-04-25T04:50:10;98637.88;;;20.82;49.87
41246;BME280;53880;47.526;18.986;2023-04-25T04:52:50;98652.72;;;20.84;49.64
41246;BME280;53880;47.526;18.986;2023-04-25T04:55:30;98646.75;;;20.82;49.67
41246;BME280;53880;47.526;18.986;2023-04-25T04:58:16;98651.06;;;20.83;49.83
41246;BME280;53880;47.526;18.986;2023-04-25T05:00:41;98647.56;;;20.83;50.55
41246;BME280;53880;47.526;18.986;2023-04-25T05:03:21;98648.38;;;20.83;50.40
41246;BME280;53880;47.526;18.986;2023-04-25T05:05:59;98642.84;;;20.85;50.58
41246;BME280;53880;47.526;18.986;2023-04-25T05:08:20;98651.13;;;20.90;50.39
41246;BME280;53880;47.526;18.986;2023-04-25T05:10:55;98647.88;;;20.94;50.36
41246;BME280;53880;47.526;18.986;2023-04-25T05:13:29;98636.41;;;21.00;49.97
41246;BME280;53880;47.526;18.986;2023-04-25T05:16:00;98645.16;;;21.09;50.00
41246;BME280;53880;47.526;18.986;2023-04-25T05:18:41;98636.97;;;21.17;49.68
41246;BME280;53880;47.526;18.986;2023-04-25T05:21:20;98638.88;;;21.30;49.53
41246;BME280;53880;47.526;18.986;2023-04-25T05:23:58;98646.59;;;21.39;49.61
41246;BME280;53880;47.526;18.986;2023-04-25T05:26:42;98642.53;;;21.50;49.34
41246;BME280;53880;47.526;18.986;2023-04-25T05:29:18;98637.41;;;21.61;49.26
41246;BME280;53880;47.526;18.986;2023-04-25T05:31:49;98640.59;;;21.71;49.40
41246;BME280;53880;47.526;18.986;2023-04-25T05:34:08;98644.94;;;21.79;49.37
41246;BME280;53880;47.526;18.986;2023-04-25T05:36:40;98642.94;;;21.87;48.64
41246;BME280;53880;47.526;18.986;2023-04-25T05:38:55;98631.41;;;21.93;48.87
41246;BME280;53880;47.526;18.986;2023-04-25T05:41:42;98634.53;;;21.97;48.69
41246;BME280;53880;47.526;18.986;2023-04-25T05:44:23;98639.28;;;21.95;48.61
41246;BME280;53880;47.526;18.986;2023-04-25T05:47:06;98635.75;;;21.94;48.82
41246;BME280;53880;47.526;18.986;2023-04-25T05:49:42;98635.34;;;21.91;48.82
41246;BME280;53880;47.526;18.986;2023-04-25T05:52:26;98638.84;;;21.91;48.86
41246;BME280;53880;47.526;18.986;2023-04-25T05:55:02;98647.91;;;21.90;48.80
41246;BME280;53880;47.526;18.986;2023-04-25T05:57:25;98644.00;;;21.86;48.88
41246;BME280;53880;47.526;18.986;2023-04-25T05:59:43;98643.38;;;21.84;48.86
41246;BME280;53880;47.526;18.986;2023-04-25T06:02:03;98650.09;;;21.80;48.93
41246;BME280;53880;47.526;18.986;2023-04-25T06:04:27;98648.44;;;21.79;48.74
41246;BME280;53880;47.526;18.986;2023-04-25T06:06:45;98647.00;;;21.77;48.79
41246;BME280;53880;47.526;18.986;2023-04-25T06:09:03;98643.69;;;21.75;48.60
41246;BME280;53880;47.526;18.986;2023-04-25T06:11:22;98652.09;;;21.72;48.77
41246;BME280;53880;47.526;18.986;2023-04-25T06:13:39;98642.44;;;21.71;48.61
41246;BME280;53880;47.526;18.986;2023-04-25T06:16:00;98644.50;;;21.69;48.73
41246;BME280;53880;47.526;18.986;2023-04-25T06:18:17;98649.22;;;21.67;48.80
41246;BME280;53880;47.526;18.986;2023-04-25T06:20:32;98651.28;;;21.65;48.84
41246;BME280;53880;47.526;18.986;2023-04-25T06:22:51;98655.16;;;21.62;48.69
41246;BME280;53880;47.526;18.986;2023-04-25T06:25:11;98650.03;;;21.61;48.95
41246;BME280;53880;47.526;18.986;2023-04-25T06:27:29;98647.50;;;21.59;48.79
41246;BME280;53880;47.526;18.986;2023-04-25T06:29:46;98649.56;;;21.57;48.76
41246;BME280;53880;47.526;18.986;2023-04-25T06:32:06;98642.75;;;21.55;48.85
41246;BME280;53880;47.526;18.986;2023-04-25T06:34:22;98649.31;;;21.52;48.98
41246;BME280;53880;47.526;18.986;2023-04-25T06:36:37;98648.69;;;21.50;48.88
41246;BME280;53880;47.526;18.986;2023-04-25T06:39:00;98648.06;;;21.48;48.93
41246;BME280;53880;47.526;18.986;2023-04-25T06:41:17;98660.84;;;21.46;49.00
41246;BME280;53880;47.526;18.986;2023-04-25T06:43:39;98651.16;;;21.45;48.99
41246;BME280;53880;47.526;18.986;2023-04-25T06:46:17;98662.06;;;21.44;48.96
41246;BME280;53880;47.526;18.986;2023-04-25T06:48:37;98652.56;;;21.41;49.10
41246;BME280;53880;47.526;18.986;2023-04-25T06:50:54;98651.75;;;21.41;48.95
41246;BME280;53880;47.526;18.986;2023-04-25T06:53:13;98650.28;;;21.38;49.04
41246;BME280;53880;47.526;18.986;2023-04-25T06:55:32;98652.34;;;21.36;49.17
41246;BME280;53880;47.526;18.986;2023-04-25T06:58:04;98658.69;;;21.35;49.03
41246;BME280;53880;47.526;18.986;2023-04-25T07:00:53;98661.59;;;21.34;49.07
41246;BME280;53880;47.526;18.986;2023-04-25T07:03:13;98661.78;;;21.32;49.18
41246;BME280;53880;47.526;18.986;2023-04-25T07:05:30;98653.97;;;21.31;49.28
41246;BME280;53880;47.526;18.986;2023-04-25T07:07:51;98658.47;;;21.30;49.29
41246;BME280;53880;47.526;18.986;2023-04-25T07:10:08;98647.94;;;21.28;49.16
41246;BME280;53880;47.526;18.986;2023-04-25T07:12:28;98655.16;;;21.28;49.12
41246;BME280;53880;47.526;18.986;2023-04-25T07:14:48;98663.38;;;21.26;49.30
41246;BME280;53880;47.526;18.986;2023-04-25T07:17:05;98654.72;;;21.24;49.32
41246;BME280;53880;47.526;18.986;2023-04-25T07:19:23;98660.91;;;21.25;49.13
41246;BME280;53880;47.526;18.986;2023-04-25T07:21:50;98657.59;;;21.23;49.13
41246;BME280;53880;47.526;18.986;2023-04-25T07:24:15;98656.75;;;21.22;49.14
41246;BME280;53880;47.526;18.986;2023-04-25T07:26:35;98657.81;;;21.21;49.23
41246;BME280;53880;47.526;18.986;2023-04-25T07:29:18;98656.13;;;21.20;49.16
41246;BME280;53880;47.526;18.986;2023-04-25T07:31:36;98662.53;;;21.19;49.17
41246;BME280;53880;47.526;18.986;2023-04-25T07:33:53;98664.56;;;21.17;49.21
41246;BME280;53880;47.526;18.986;2023-04-25T07:36:08;98660.22;;;21.16;49.13
41246;BME280;53880;47.526;18.986;2023-04-25T07:38:23;98660.22;;;21.16;49.35
41246;BME280;53880;47.526;18.986;2023-04-25T07:40:44;98660.44;;;21.15;49.22
41246;BME280;53880;47.526;18.986;2023-04-25T07:43:03;98668.63;;;21.13;49.37
41246;BME280;53880;47.526;18.986;2023-04-25T07:45:28;98663.28;;;21.13;49.32
41246;BME280;53880;47.526;18.986;2023-04-25T07:47:47;98671.53;;;21.12;49.23
41246;BME280;53880;47.526;18.986;2023-04-25T07:50:03;98662.66;;;21.11;49.43
41246;BME280;53880;47.526;18.986;2023-04-25T07:52:22;98660.81;;;21.12;49.33
41246;BME280;53880;47.526;18.986;2023-04-25T07:54:53;98665.31;;;21.11;49.46
41246;BME280;53880;47.526;18.986;2023-04-25T07:57:21;98670.69;;;21.11;49.22
41246;BME280;53880;47.526;18.986;2023-04-25T07:59:39;98662.47;;;21.13;49.40
41246;BME280;53880;47.526;18.986;2023-04-25T08:01:57;98660.44;;;21.15;49.20
41246;BME280;53880;47.526;18.986;2023-04-25T08:04:14;98658.19;;;21.18;49.29
41246;BME280;53880;47.526;18.986;2023-04-25T08:06:40;98675.13;;;21.25;49.40
41246;BME280;53880;47.526;18.986;2023-04-25T08:09:06;98657.63;;;21.30;49.15
41246;BME280;53880;47.526;18.986;2023-04-25T08:11:26;98663.88;;;21.37;49.16
41246;BME280;53880;47.526;18.986;2023-04-25T08:13:47;98664.72;;;21.44;48.98
41246;BME280;53880;47.526;18.986;2023-04-25T08:16:04;98669.31;;;21.50;48.92
41246;BME280;53880;47.526;18.986;2023-04-25T08:18:20;98669.53;;;21.55;49.02
41246;BME280;53880;47.526;18.986;2023-04-25T08:20:38;98674.13;;;21.61;48.69
41246;BME280;53880;47.526;18.986;2023-04-25T08:22:56;98671.88;;;21.64;48.37
41246;BME280;53880;47.526;18.986;2023-04-25T08:25:20;98671.28;;;21.69;48.45
41246;BME280;53880;47.526;18.986;2023-04-25T08:27:40;98664.72;;;21.71;48.53
41246;BME280;53880;47.526;18.986;2023-04-25T08:29:59;98673.38;;;21.73;48.44
41246;BME280;53880;47.526;18.986;2023-04-25T08:32:18;98668.66;;;21.75;48.49
41246;BME280;53880;47.526;18.986;2023-04-25T08:34:50;98682.88;;;21.76;48.45
41246;BME280;53880;47.526;18.986;2023-04-25T08:37:09;98684.53;;;21.77;48.69
41246;BME280;53880;47.526;18.986;2023-04-25T08:39:38;98686.38;;;21.76;48.49
41246;BME280;53880;47.526;18.986;2023-04-25T08:42:17;98685.56;;;21.76;48.41
41246;BME280;53880;47.526;18.986;2023-04-25T08:44:38;98695.44;;;21.75;48.53
41246;BME280;53880;47.526;18.986;2023-04-25T08:46:56;98695.44;;;21.75;48.36
41246;BME280;53880;47.526;18.986;2023-04-25T08:49:17;98696.47;;;21.74;48.52
41246;BME280;53880;47.526;18.986;2023-04-25T08:51:45;98698.31;;;21.74;48.42
41246;BME280;53880;47.526;18.986;2023-04-25T08:54:14;98688.63;;;21.73;48.66
41246;BME280;53880;47.526;18.986;2023-04-25T08:56:32;98697.50;;;21.73;48.54
41246;BME280;53880;47.526;18.986;2023-04-25T08:58:55;98696.66;;;21.73;48.66
41246;BME280;53880;47.526;18.986;2023-04-25T09:01:18;98707.59;;;21.71;48.73
41246;BME280;53880;47.526;18.986;2023-04-25T09:03:41;98697.88;;;21.70;48.68
41246;BME280;53880;47.526;18.986;2023-04-25T09:06:01;98697.25;;;21.68;48.63
41246;BME280;53880;47.526;18.986;2023-04-25T09:08:21;98702.63;;;21.68;48.55
41246;BME280;53880;47.526;18.986;2023-04-25T09:10:37;98695.59;;;21.67;48.79
41246;BME280;53880;47.526;18.986;2023-04-25T09:13:06;98697.63;;;21.65;48.68
41246;BME280;53880;47.526;18.986;2023-04-25T09:15:50;98699.53;;;21.65;48.73
41246;BME280;53880;47.526;18.986;2023-04-25T09:18:29;98703.22;;;21.64;48.78
41246;BME280;53880;47.526;18.986;2023-04-25T09:20:47;98710.41;;;21.63;48.62
41246;BME280;53880;47.526;18.986;2023-04-25T09:23:14;98706.09;;;21.62;48.78
41246;BME280;53880;47.526;18.986;2023-04-25T09:25:38;98701.75;;;21.61;48.60
41246;BME280;53880;47.526;18.986;2023-04-25T09:27:59;98703.63;;;21.61;48.79
41246;BME280;53880;47.526;18.986;2023-04-25T09:30:32;98697.44;;;21.60;48.61
41246;BME280;53880;47.526;18.986;2023-04-25T09:33:10;98712.88;;;21.58;48.81
41246;BME280;53880;47.526;18.986;2023-04-25T09:35:29;98700.47;;;21.57;48.65
41246;BME280;53880;47.526;18.986;2023-04-25T09:37:51;98709.38;;;21.58;48.64
41246;BME280;53880;47.526;18.986;2023-04-25T09:40:32;98702.34;;;21.57;48.71
41246;BME280;53880;47.526;18.986;2023-04-25T09:42:56;98699.84;;;21.55;48.70
41246;BME280;53880;47.526;18.986;2023-04-25T09:45:16;98705.41;;;21.54;48.90
41246;BME280;53880;47.526;18.986;2023-04-25T09:47:37;98705.59;;;21.52;48.70
41246;BME280;53880;47.526;18.986;2023-04-25T09:49:56;98705.59;;;21.52;48.66
41246;BME280;53880;47.526;18.986;2023-04-25T09:52:21;98702.50;;;21.49;48.78
41246;BME280;53880;47.526;18.986;2023-04-25T09:54:50;98697.34;;;21.47;48.98
41246;BME280;53880;47.526;18.986;2023-04-25T09:57:18;98696.50;;;21.47;48.76
41246;BME280;53880;47.526;18.986;2023-04-25T09:59:44;98695.03;;;21.44;48.92
41246;BME280;53880;47.526;18.986;2023-04-25T10:02:02;98699.56;;;21.44;48.86
41246;BME280;53880;47.526;18.986;2023-04-25T10:04:28;98706.97;;;21.42;48.98
41246;BME280;53880;47.526;18.986;2023-04-25T10:06:55;98700.81;;;21.41;49.04
41246;BME280;53880;47.526;18.986;2023-04-25T10:09:14;98708.22;;;21.39;48.86
41246;BME280;53880;47.526;18.986;2023-04-25T10:11:36;98703.03;;;21.38;48.87
41246;BME280;53880;47.526;18.986;2023-04-25T10:13:56;98704.88;;;21.37;49.03
41246;BME280;53880;47.526;18.986;2023-04-25T10:16:19;98700.56;;;21.36;49.19
41246;BME280;53880;47.526;18.986;2023-04-25T10:18:37;98694.38;;;21.36;48.95
41246;BME280;53880;47.526;18.986;2023-04-25T10:21:00;98701.56;;;21.35;48.91
41246;BME280;53880;47.526;18.986;2023-04-25T10:23:20;98704.25;;;21.35;49.12
41246;BME280;53880;47.526;18.986;2023-04-25T10:25:41;98700.75;;;21.35;48.96
41246;BME280;53880;47.526;18.986;2023-04-25T10:28:03;98699.09;;;21.34;48.98
41246;BME280;53880;47.526;18.986;2023-04-25T10:30:21;98698.25;;;21.33;48.98
41246;BME280;53880;47.526;18.986;2023-04-25T10:32:41;98701.13;;;21.32;49.10
41246;BME280;53880;47.526;18.986;2023-04-25T10:35:29;98701.13;;;21.32;49.13
41246;BME280;53880;47.526;18.986;2023-04-25T10:40:23;98701.34;;;21.30;48.97
41246;BME280;53880;47.526;18.986;2023-04-25T10:42:40;98708.53;;;21.30;48.93
41246;BME280;53880;47.526;18.986;2023-04-25T10:45:06;98705.03;;;21.29;48.93
41246;BME280;53880;47.526;18.986;2023-04-25T10:47:34;98713.06;;;21.29;49.09
41246;BME280;53880;47.526;18.986;2023-04-25T10:49:56;98712.22;;;21.28;49.12
41246;BME280;53880;47.526;18.986;2023-04-25T10:59:46;98713.47;;;21.26;49.14
41246;BME280;53880;47.526;18.986;2023-04-25T11:02:11;98716.16;;;21.26;49.14
41246;BME280;53880;47.526;18.986;2023-04-25T11:04:36;98708.28;;;21.24;48.97
41246;BME280;53880;47.526;18.986;2023-04-25T11:07:02;98716.31;;;21.24;48.97
41246;BME280;53880;47.526;18.986;2023-04-25T11:09:28;98714.84;;;21.22;48.99
41246;BME280;53880;47.526;18.986;2023-04-25T11:11:56;98707.84;;;21.21;49.14
41246;BME280;53880;47.526;18.986;2023-04-25T11:14:14;98719.56;;;21.20;49.13
41246;BME280;53880;47.526;18.986;2023-04-25T11:16:34;98710.91;;;21.18;49.01
41246;BME280;53880;47.526;18.986;2023-04-25T11:18:51;98723.09;;;21.20;49.16
41246;BME280;53880;47.526;18.986;2023-04-25T11:21:10;98726.81;;;21.19;49.00
41246;BME280;53880;47.526;18.986;2023-04-25T11:23:26;98716.25;;;21.18;49.10
41246;BME280;53880;47.526;18.986;2023-04-25T11:25:47;98721.63;;;21.18;49.11
41246;BME280;53880;47.526;18.986;2023-04-25T11:28:03;98723.50;;;21.17;49.28
41246;BME280;53880;47.526;18.986;2023-04-25T11:30:27;98718.13;;;21.17;49.17
41246;BME280;53880;47.526;18.986;2023-04-25T11:32:43;98725.34;;;21.17;49.18
41246;BME280;53880;47.526;18.986;2023-04-25T11:35:04;98733.38;;;21.17;49.18
41246;BME280;53880;47.526;18.986;2023-04-25T11:37:21;98735.22;;;21.16;49.14
41246;BME280;53880;47.526;18.986;2023-04-25T11:39:43;98732.75;;;21.15;49.31
41246;BME280;53880;47.526;18.986;2023-04-25T11:42:01;98732.75;;;21.15;49.29
41246;BME280;53880;47.526;18.986;2023-04-25T11:44:21;98739.09;;;21.14;49.36
41246;BME280;53880;47.526;18.986;2023-04-25T11:46:39;98737.47;;;21.13;49.12
41246;BME280;53880;47.526;18.986;2023-04-25T11:48:57;98738.47;;;21.12;49.32
41246;BME280;53880;47.526;18.986;2023-04-25T11:51:14;98751.84;;;21.12;49.13
41246;BME280;53880;47.526;18.986;2023-04-25T11:53:32;98752.06;;;21.10;49.18
41246;BME280;53880;47.526;18.986;2023-04-25T11:55:49;98747.53;;;21.11;49.23
41246;BME280;53880;47.526;18.986;2023-04-25T11:58:07;98751.22;;;21.10;49.25
41246;BME280;53880;47.526;18.986;2023-04-25T12:00:23;98763.78;;;21.09;49.21
41246;BME280;53880;47.526;18.986;2023-04-25T12:02:47;98766.47;;;21.09;49.21
41246;BME280;53880;47.526;18.986;2023-04-25T12:05:14;98764.81;;;21.08;49.20
41246;BME280;53880;47.526;18.986;2023-04-25T12:07:40;98774.69;;;21.08;49.23
41246;BME280;53880;47.526;18.986;2023-04-25T12:09:58;98776.53;;;21.07;49.38
41246;BME280;53880;47.526;18.986;2023-04-25T12:12:16;98767.50;;;21.08;49.41
41246;BME280;53880;47.526;18.986;2023-04-25T12:14:34;98765.81;;;21.07;49.13
41246;BME280;53880;47.526;18.986;2023-04-25T12:16:57;98754.28;;;21.07;49.15
41246;BME280;53880;47.526;18.986;2023-04-25T12:19:17;98767.66;;;21.07;49.37
41246;BME280;53880;47.526;18.986;2023-04-25T12:21:34;98759.63;;;21.07;49.25
41246;BME280;53880;47.526;18.986;2023-04-25T12:23:51;98758.00;;;21.06;49.16
41246;BME280;53880;47.526;18.986;2023-04-25T12:26:07;98753.47;;;21.06;49.30
41246;BME280;53880;47.526;18.986;2023-04-25T12:28:24;98761.50;;;21.06;49.38
41246;BME280;53880;47.526;18.986;2023-04-25T12:31:02;98763.34;;;21.06;49.53
41246;BME280;53880;47.526;18.986;2023-04-25T12:33:21;98749.31;;;21.04;48.87